sensor_id;sensor_type;location;lat;lon;timestamp;P1;durP1;ratioP1;P2;durP2;ratioP2
28714;SDS011;15886;49.170;14.572;2024-02-23T00:00:10;8.93;;;4.35;;
28714;SDS011;15886;49.170;14.572;2024-02-23T00:02:39;7.07;;;3.70;;
28714;SDS011;15886;49.170;14.572;2024-02-23T00:05:07;9.82;;;3.90;;
28714;SDS011;15886;49.170;14.572;2024-02-23T00:07:35;8.88;;;4.25;;
28714;SDS011;15886;49.170;14.572;2024-02-23T00:10:04;8.70;;;4.18;;
28714;SDS011;15886;49.170;14.572;2024-02-23T00:12:32;8.55;;;3.67;;
28714;SDS011;15886;49.170;14.572;2024-02-23T00:15:00;7.97;;;3.85;;
28714;SDS011;15886;49.170;14.572;2024-02-23T00:17:28;7.05;;;3.75;;
28714;SDS011;15886;49.170;14.572;2024-02-23T00:19:57;9.20;;;4.03;;
28714;SDS011;15886;49.170;14.572;2024-02-23T00:22:25;9.05;;;4.20;;
28714;SDS011;15886;49.170;14.572;2024-02-23T00:24:53;5.97;;;3.15;;
28714;SDS011;15886;49.170;14.572;2024-02-23T00:27:21;7.75;;;3.60;;
28714;SDS011;15886;49.170;14.572;2024-02-23T00:29:49;7.53;;;3.30;;
28714;SDS011;15886;49.170;14.572;2024-02-23T00:32:17;5.72;;;3.22;;
28714;SDS011;15886;49.170;14.572;2024-02-23T00:34:45;7.57;;;3.55;;
28714;SDS011;15886;49.170;14.572;2024-02-23T00:37:14;10.38;;;4.32;;
28714;SDS011;15886;49.170;14.572;2024-02-23T00:39:42;8.23;;;3.33;;
28714;SDS011;15886;49.170;14.572;2024-02-23T00:42:10;5.97;;;3.40;;
28714;SDS011;15886;49.170;14.572;2024-02-23T00:44:38;7.78;;;3.90;;
28714;SDS011;15886;49.170;14.572;2024-02-23T00:47:06;8.88;;;3.60;;
28714;SDS011;15886;49.170;14.572;2024-02-23T00:49:34;8.70;;;4.10;;
28714;SDS011;15886;49.170;14.572;2024-02-23T00:52:02;8.52;;;3.85;;
28714;SDS011;15886;49.170;14.572;2024-02-23T00:54:31;5.85;;;3.47;;
28714;SDS011;15886;49.170;14.572;2024-02-23T00:56:59;9.32;;;4.25;;
28714;SDS011;15886;49.170;14.572;2024-02-23T00:59:27;10.02;;;3.95;;
28714;SDS011;15886;49.170;14.572;2024-02-23T01:01:55;9.05;;;4.60;;
28714;SDS011;15886;49.170;14.572;2024-02-23T01:04:23;11.70;;;4.68;;
28714;SDS011;15886;49.170;14.572;2024-02-23T01:06:51;13.45;;;4.25;;
28714;SDS011;15886;49.170;14.572;2024-02-23T01:09:20;7.57;;;3.67;;
28714;SDS011;15886;49.170;14.572;2024-02-23T01:11:48;6.25;;;3.75;;
28714;SDS011;15886;49.170;14.572;2024-02-23T01:14:16;11.20;;;3.92;;
28714;SDS011;15886;49.170;14.572;2024-02-23T01:16:45;8.25;;;4.68;;
28714;SDS011;15886;49.170;14.572;2024-02-23T01:19:14;8.70;;;4.13;;
28714;SDS011;15886;49.170;14.572;2024-02-23T01:21:43;5.78;;;3.47;;
28714;SDS011;15886;49.170;14.572;2024-02-23T01:24:11;8.93;;;3.72;;
28714;SDS011;15886;49.170;14.572;2024-02-23T01:26:39;4.85;;;2.63;;
28714;SDS011;15886;49.170;14.572;2024-02-23T01:29:08;7.03;;;3.40;;
28714;SDS011;15886;49.170;14.572;2024-02-23T01:31:36;6.00;;;3.47;;
28714;SDS011;15886;49.170;14.572;2024-02-23T01:34:05;8.93;;;4.10;;
28714;SDS011;15886;49.170;14.572;2024-02-23T01:36:33;5.03;;;3.58;;
28714;SDS011;15886;49.170;14.572;2024-02-23T01:39:03;7.80;;;3.17;;
28714;SDS011;15886;49.170;14.572;2024-02-23T01:41:31;10.00;;;3.10;;
28714;SDS011;15886;49.170;14.572;2024-02-23T01:43:59;8.43;;;3.50;;
28714;SDS011;15886;49.170;14.572;2024-02-23T01:46:27;4.75;;;2.50;;
28714;SDS011;15886;49.170;14.572;2024-02-23T01:48:56;12.98;;;3.92;;
28714;SDS011;15886;49.170;14.572;2024-02-23T01:51:24;7.78;;;3.03;;
28714;SDS011;15886;49.170;14.572;2024-02-23T01:53:53;5.93;;;3.00;;
28714;SDS011;15886;49.170;14.572;2024-02-23T01:56:21;7.43;;;3.17;;
28714;SDS011;15886;49.170;14.572;2024-02-23T01:58:49;5.38;;;2.67;;
28714;SDS011;15886;49.170;14.572;2024-02-23T02:01:17;5.40;;;3.47;;
28714;SDS011;15886;49.170;14.572;2024-02-23T02:03:46;4.18;;;2.83;;
28714;SDS011;15886;49.170;14.572;2024-02-23T02:06:14;3.88;;;2.95;;
28714;SDS011;15886;49.170;14.572;2024-02-23T02:08:42;3.47;;;2.00;;
28714;SDS011;15886;49.170;14.572;2024-02-23T02:11:10;3.03;;;2.10;;
28714;SDS011;15886;49.170;14.572;2024-02-23T02:13:39;7.00;;;3.67;;
28714;SDS011;15886;49.170;14.572;2024-02-23T02:16:07;6.03;;;3.70;;
28714;SDS011;15886;49.170;14.572;2024-02-23T02:18:35;7.80;;;3.88;;
28714;SDS011;15886;49.170;14.572;2024-02-23T02:21:03;6.05;;;3.25;;
28714;SDS011;15886;49.170;14.572;2024-02-23T02:23:31;4.82;;;3.03;;
28714;SDS011;15886;49.170;14.572;2024-02-23T02:25:59;6.63;;;3.65;;
28714;SDS011;15886;49.170;14.572;2024-02-23T02:28:28;5.85;;;3.95;;
28714;SDS011;15886;49.170;14.572;2024-02-23T02:30:56;4.90;;;2.72;;
28714;SDS011;15886;49.170;14.572;2024-02-23T02:33:24;4.25;;;2.45;;
28714;SDS011;15886;49.170;14.572;2024-02-23T02:35:52;5.22;;;2.20;;
28714;SDS011;15886;49.170;14.572;2024-02-23T02:38:20;4.07;;;2.15;;
28714;SDS011;15886;49.170;14.572;2024-02-23T02:40:49;4.22;;;1.80;;
28714;SDS011;15886;49.170;14.572;2024-02-23T02:43:17;6.50;;;2.10;;
28714;SDS011;15886;49.170;14.572;2024-02-23T02:45:45;4.40;;;2.42;;
28714;SDS011;15886;49.170;14.572;2024-02-23T02:48:13;5.35;;;2.10;;
28714;SDS011;15886;49.170;14.572;2024-02-23T02:50:41;3.53;;;1.55;;
28714;SDS011;15886;49.170;14.572;2024-02-23T02:53:10;5.88;;;2.00;;
28714;SDS011;15886;49.170;14.572;2024-02-23T02:55:40;3.25;;;1.85;;
28714;SDS011;15886;49.170;14.572;2024-02-23T02:58:10;3.75;;;1.58;;
28714;SDS011;15886;49.170;14.572;2024-02-23T03:00:40;4.70;;;2.25;;
28714;SDS011;15886;49.170;14.572;2024-02-23T03:03:08;2.60;;;1.48;;
28714;SDS011;15886;49.170;14.572;2024-02-23T03:05:36;1.80;;;1.17;;
28714;SDS011;15886;49.170;14.572;2024-02-23T03:08:04;2.33;;;0.93;;
28714;SDS011;15886;49.170;14.572;2024-02-23T03:10:33;1.63;;;1.10;;
28714;SDS011;15886;49.170;14.572;2024-02-23T03:13:01;1.40;;;1.10;;
28714;SDS011;15886;49.170;14.572;2024-02-23T03:15:29;1.67;;;0.88;;
28714;SDS011;15886;49.170;14.572;2024-02-23T03:17:58;2.65;;;1.08;;
28714;SDS011;15886;49.170;14.572;2024-02-23T03:20:28;2.40;;;0.85;;
28714;SDS011;15886;49.170;14.572;2024-02-23T03:22:57;1.50;;;0.68;;
28714;SDS011;15886;49.170;14.572;2024-02-23T03:25:25;0.68;;;0.57;;
28714;SDS011;15886;49.170;14.572;2024-02-23T03:27:53;3.63;;;2.22;;
28714;SDS011;15886;49.170;14.572;2024-02-23T03:30:22;4.50;;;2.70;;
28714;SDS011;15886;49.170;14.572;2024-02-23T03:32:50;7.78;;;4.15;;
28714;SDS011;15886;49.170;14.572;2024-02-23T03:35:18;12.30;;;5.57;;
28714;SDS011;15886;49.170;14.572;2024-02-23T03:37:46;15.35;;;8.82;;
28714;SDS011;15886;49.170;14.572;2024-02-23T03:40:14;12.98;;;8.20;;
28714;SDS011;15886;49.170;14.572;2024-02-23T03:42:45;19.45;;;6.38;;
28714;SDS011;15886;49.170;14.572;2024-02-23T03:45:13;13.32;;;6.10;;
28714;SDS011;15886;49.170;14.572;2024-02-23T03:47:41;17.48;;;8.50;;
28714;SDS011;15886;49.170;14.572;2024-02-23T03:50:10;16.20;;;8.77;;
28714;SDS011;15886;49.170;14.572;2024-02-23T03:52:38;12.40;;;6.93;;
28714;SDS011;15886;49.170;14.572;2024-02-23T03:55:07;12.65;;;7.53;;
28714;SDS011;15886;49.170;14.572;2024-02-23T03:57:35;15.40;;;6.93;;
28714;SDS011;15886;49.170;14.572;2024-02-23T04:00:03;7.50;;;4.57;;
28714;SDS011;15886;49.170;14.572;2024-02-23T04:02:41;5.55;;;1.92;;
28714;SDS011;15886;49.170;14.572;2024-02-23T04:05:09;1.95;;;1.20;;
28714;SDS011;15886;49.170;14.572;2024-02-23T04:07:38;4.43;;;0.90;;
28714;SDS011;15886;49.170;14.572;2024-02-23T04:10:06;1.13;;;0.55;;
28714;SDS011;15886;49.170;14.572;2024-02-23T04:12:35;0.77;;;0.50;;
28714;SDS011;15886;49.170;14.572;2024-02-23T04:15:03;4.07;;;1.00;;
28714;SDS011;15886;49.170;14.572;2024-02-23T04:17:31;0.65;;;0.52;;
28714;SDS011;15886;49.170;14.572;2024-02-23T04:20:00;0.57;;;0.50;;
28714;SDS011;15886;49.170;14.572;2024-02-23T04:22:33;0.88;;;0.75;;
28714;SDS011;15886;49.170;14.572;2024-02-23T04:25:01;2.28;;;1.55;;
28714;SDS011;15886;49.170;14.572;2024-02-23T04:27:29;3.25;;;2.53;;
28714;SDS011;15886;49.170;14.572;2024-02-23T04:29:58;4.72;;;2.65;;
28714;SDS011;15886;49.170;14.572;2024-02-23T04:32:26;3.42;;;1.20;;
28714;SDS011;15886;49.170;14.572;2024-02-23T04:34:54;0.93;;;0.70;;
28714;SDS011;15886;49.170;14.572;2024-02-23T04:37:23;0.55;;;0.50;;
28714;SDS011;15886;49.170;14.572;2024-02-23T04:39:51;1.95;;;0.70;;
28714;SDS011;15886;49.170;14.572;2024-02-23T04:42:21;0.73;;;0.40;;
28714;SDS011;15886;49.170;14.572;2024-02-23T04:44:49;1.13;;;0.45;;
28714;SDS011;15886;49.170;14.572;2024-02-23T04:47:20;2.25;;;0.50;;
28714;SDS011;15886;49.170;14.572;2024-02-23T04:49:48;0.90;;;0.73;;
28714;SDS011;15886;49.170;14.572;2024-02-23T04:52:16;1.20;;;0.65;;
28714;SDS011;15886;49.170;14.572;2024-02-23T04:54:44;2.65;;;1.13;;
28714;SDS011;15886;49.170;14.572;2024-02-23T04:57:13;1.95;;;1.08;;
28714;SDS011;15886;49.170;14.572;2024-02-23T04:59:41;1.48;;;0.88;;
28714;SDS011;15886;49.170;14.572;2024-02-23T05:02:09;0.60;;;0.45;;
28714;SDS011;15886;49.170;14.572;2024-02-23T05:04:38;11.02;;;3.20;;
28714;SDS011;15886;49.170;14.572;2024-02-23T05:07:06;1.75;;;1.15;;
28714;SDS011;15886;49.170;14.572;2024-02-23T05:09:34;34.70;;;11.63;;
28714;SDS011;15886;49.170;14.572;2024-02-23T05:12:02;43.42;;;19.42;;
28714;SDS011;15886;49.170;14.572;2024-02-23T05:14:30;18.63;;;7.70;;
28714;SDS011;15886;49.170;14.572;2024-02-23T05:16:58;5.13;;;2.65;;
28714;SDS011;15886;49.170;14.572;2024-02-23T05:19:27;9.68;;;4.85;;
28714;SDS011;15886;49.170;14.572;2024-02-23T05:21:55;12.18;;;6.75;;
28714;SDS011;15886;49.170;14.572;2024-02-23T05:24:23;3.80;;;3.25;;
28714;SDS011;15886;49.170;14.572;2024-02-23T05:26:52;3.70;;;0.75;;
28714;SDS011;15886;49.170;14.572;2024-02-23T05:29:20;0.98;;;0.30;;
28714;SDS011;15886;49.170;14.572;2024-02-23T05:31:51;0.28;;;0.28;;
28714;SDS011;15886;49.170;14.572;2024-02-23T05:34:20;0.30;;;0.30;;
28714;SDS011;15886;49.170;14.572;2024-02-23T05:36:48;0.82;;;0.40;;
28714;SDS011;15886;49.170;14.572;2024-02-23T05:39:18;0.30;;;0.30;;
28714;SDS011;15886;49.170;14.572;2024-02-23T05:41:46;0.35;;;0.20;;
28714;SDS011;15886;49.170;14.572;2024-02-23T05:44:14;0.43;;;0.32;;
28714;SDS011;15886;49.170;14.572;2024-02-23T05:46:43;0.17;;;0.17;;
28714;SDS011;15886;49.170;14.572;2024-02-23T05:49:11;0.35;;;0.20;;
28714;SDS011;15886;49.170;14.572;2024-02-23T05:51:39;0.17;;;0.17;;
28714;SDS011;15886;49.170;14.572;2024-02-23T05:54:11;0.35;;;0.30;;
28714;SDS011;15886;49.170;14.572;2024-02-23T05:56:41;0.20;;;0.20;;
28714;SDS011;15886;49.170;14.572;2024-02-23T05:59:09;0.30;;;0.20;;
28714;SDS011;15886;49.170;14.572;2024-02-23T06:01:37;0.68;;;0.50;;
28714;SDS011;15886;49.170;14.572;2024-02-23T06:04:05;1.30;;;0.60;;
28714;SDS011;15886;49.170;14.572;2024-02-23T06:06:33;0.50;;;0.50;;
28714;SDS011;15886;49.170;14.572;2024-02-23T06:09:02;0.43;;;0.43;;
28714;SDS011;15886;49.170;14.572;2024-02-23T06:11:30;0.32;;;0.32;;
28714;SDS011;15886;49.170;14.572;2024-02-23T06:13:58;2.78;;;0.63;;
28714;SDS011;15886;49.170;14.572;2024-02-23T06:16:26;0.40;;;0.40;;
28714;SDS011;15886;49.170;14.572;2024-02-23T06:18:55;0.40;;;0.30;;
28714;SDS011;15886;49.170;14.572;2024-02-23T06:21:23;0.63;;;0.40;;
28714;SDS011;15886;49.170;14.572;2024-02-23T06:23:51;0.32;;;0.32;;
28714;SDS011;15886;49.170;14.572;2024-02-23T06:26:20;0.50;;;0.30;;
28714;SDS011;15886;49.170;14.572;2024-02-23T06:28:48;0.22;;;0.22;;
28714;SDS011;15886;49.170;14.572;2024-02-23T06:31:16;2.28;;;0.20;;
28714;SDS011;15886;49.170;14.572;2024-02-23T06:33:44;0.13;;;0.13;;
28714;SDS011;15886;49.170;14.572;2024-02-23T06:36:16;0.20;;;0.20;;
28714;SDS011;15886;49.170;14.572;2024-02-23T06:38:44;0.32;;;0.20;;
28714;SDS011;15886;49.170;14.572;2024-02-23T06:41:12;0.40;;;0.40;;
28714;SDS011;15886;49.170;14.572;2024-02-23T06:43:41;0.20;;;0.20;;
28714;SDS011;15886;49.170;14.572;2024-02-23T06:46:09;0.20;;;0.20;;
28714;SDS011;15886;49.170;14.572;2024-02-23T06:48:37;0.63;;;0.30;;
28714;SDS011;15886;49.170;14.572;2024-02-23T06:51:06;4.45;;;0.50;;
28714;SDS011;15886;49.170;14.572;2024-02-23T06:53:36;0.30;;;0.20;;
28714;SDS011;15886;49.170;14.572;2024-02-23T06:56:05;0.17;;;0.17;;
28714;SDS011;15886;49.170;14.572;2024-02-23T06:58:33;0.50;;;0.40;;
28714;SDS011;15886;49.170;14.572;2024-02-23T07:01:02;1.40;;;0.35;;
28714;SDS011;15886;49.170;14.572;2024-02-23T07:03:33;0.20;;;0.20;;
28714;SDS011;15886;49.170;14.572;2024-02-23T07:06:02;0.60;;;0.30;;
28714;SDS011;15886;49.170;14.572;2024-02-23T07:08:30;0.30;;;0.30;;
28714;SDS011;15886;49.170;14.572;2024-02-23T07:10:59;0.73;;;0.30;;
28714;SDS011;15886;49.170;14.572;2024-02-23T07:13:27;0.20;;;0.20;;
28714;SDS011;15886;49.170;14.572;2024-02-23T07:15:57;0.10;;;0.10;;
28714;SDS011;15886;49.170;14.572;2024-02-23T07:18:25;0.25;;;0.25;;
28714;SDS011;15886;49.170;14.572;2024-02-23T07:20:53;0.47;;;0.32;;
28714;SDS011;15886;49.170;14.572;2024-02-23T07:23:21;4.10;;;0.40;;
28714;SDS011;15886;49.170;14.572;2024-02-23T07:25:50;3.38;;;0.55;;
28714;SDS011;15886;49.170;14.572;2024-02-23T07:28:18;0.43;;;0.30;;
28714;SDS011;15886;49.170;14.572;2024-02-23T07:30:47;1.40;;;0.35;;
28714;SDS011;15886;49.170;14.572;2024-02-23T07:33:15;1.23;;;0.55;;
28714;SDS011;15886;49.170;14.572;2024-02-23T07:35:43;51.10;;;14.07;;
28714;SDS011;15886;49.170;14.572;2024-02-23T07:38:11;2.47;;;1.00;;
28714;SDS011;15886;49.170;14.572;2024-02-23T07:40:39;0.82;;;0.30;;
28714;SDS011;15886;49.170;14.572;2024-02-23T07:43:07;0.50;;;0.50;;
28714;SDS011;15886;49.170;14.572;2024-02-23T07:45:38;1.27;;;0.40;;
28714;SDS011;15886;49.170;14.572;2024-02-23T07:48:06;2.72;;;0.30;;
28714;SDS011;15886;49.170;14.572;2024-02-23T07:50:35;0.20;;;0.20;;
28714;SDS011;15886;49.170;14.572;2024-02-23T07:53:04;0.50;;;0.30;;
28714;SDS011;15886;49.170;14.572;2024-02-23T07:55:32;0.30;;;0.30;;
28714;SDS011;15886;49.170;14.572;2024-02-23T07:58:00;4.20;;;0.20;;
28714;SDS011;15886;49.170;14.572;2024-02-23T08:00:28;0.50;;;0.30;;
28714;SDS011;15886;49.170;14.572;2024-02-23T08:02:56;0.25;;;0.25;;
28714;SDS011;15886;49.170;14.572;2024-02-23T08:05:26;1.30;;;0.73;;
28714;SDS011;15886;49.170;14.572;2024-02-23T08:07:54;16.48;;;3.70;;
28714;SDS011;15886;49.170;14.572;2024-02-23T08:10:22;2.33;;;0.57;;
28714;SDS011;15886;49.170;14.572;2024-02-23T08:12:52;0.45;;;0.32;;
28714;SDS011;15886;49.170;14.572;2024-02-23T08:15:21;0.38;;;0.30;;
28714;SDS011;15886;49.170;14.572;2024-02-23T08:17:49;0.57;;;0.28;;
28714;SDS011;15886;49.170;14.572;2024-02-23T08:20:17;1.30;;;0.52;;
28714;SDS011;15886;49.170;14.572;2024-02-23T08:22:46;1.00;;;0.40;;
28714;SDS011;15886;49.170;14.572;2024-02-23T08:25:14;0.52;;;0.35;;
28714;SDS011;15886;49.170;14.572;2024-02-23T08:27:43;0.65;;;0.45;;
28714;SDS011;15886;49.170;14.572;2024-02-23T08:30:13;1.50;;;0.57;;
28714;SDS011;15886;49.170;14.572;2024-02-23T08:32:41;1.48;;;1.00;;
28714;SDS011;15886;49.170;14.572;2024-02-23T08:35:09;3.22;;;0.88;;
28714;SDS011;15886;49.170;14.572;2024-02-23T08:37:37;1.55;;;0.90;;
28714;SDS011;15886;49.170;14.572;2024-02-23T08:40:05;2.35;;;1.40;;
28714;SDS011;15886;49.170;14.572;2024-02-23T08:42:34;2.00;;;1.10;;
28714;SDS011;15886;49.170;14.572;2024-02-23T08:45:04;1.50;;;0.68;;
28714;SDS011;15886;49.170;14.572;2024-02-23T08:47:33;2.67;;;0.60;;
28714;SDS011;15886;49.170;14.572;2024-02-23T08:50:02;1.45;;;0.70;;
28714;SDS011;15886;49.170;14.572;2024-02-23T08:52:31;2.67;;;1.10;;
28714;SDS011;15886;49.170;14.572;2024-02-23T08:54:59;0.50;;;0.47;;
28714;SDS011;15886;49.170;14.572;2024-02-23T08:57:27;0.43;;;0.30;;
28714;SDS011;15886;49.170;14.572;2024-02-23T08:59:55;1.30;;;0.70;;
28714;SDS011;15886;49.170;14.572;2024-02-23T09:02:25;2.17;;;0.50;;
28714;SDS011;15886;49.170;14.572;2024-02-23T09:04:53;1.45;;;1.00;;
28714;SDS011;15886;49.170;14.572;2024-02-23T09:07:21;0.75;;;0.50;;
28714;SDS011;15886;49.170;14.572;2024-02-23T09:09:49;1.27;;;0.50;;
28714;SDS011;15886;49.170;14.572;2024-02-23T09:12:18;1.30;;;0.75;;
28714;SDS011;15886;49.170;14.572;2024-02-23T09:14:46;2.13;;;0.57;;
28714;SDS011;15886;49.170;14.572;2024-02-23T09:17:14;1.90;;;0.80;;
28714;SDS011;15886;49.170;14.572;2024-02-23T09:19:43;1.20;;;0.52;;
28714;SDS011;15886;49.170;14.572;2024-02-23T09:22:11;2.25;;;0.55;;
28714;SDS011;15886;49.170;14.572;2024-02-23T09:24:39;0.60;;;0.52;;
28714;SDS011;15886;49.170;14.572;2024-02-23T09:27:08;1.80;;;0.60;;
28714;SDS011;15886;49.170;14.572;2024-02-23T09:29:36;2.95;;;0.82;;
28714;SDS011;15886;49.170;14.572;2024-02-23T09:32:05;3.00;;;0.73;;
28714;SDS011;15886;49.170;14.572;2024-02-23T09:34:33;1.80;;;1.02;;
28714;SDS011;15886;49.170;14.572;2024-02-23T09:37:01;4.43;;;0.73;;
28714;SDS011;15886;49.170;14.572;2024-02-23T09:39:29;0.93;;;0.70;;
28714;SDS011;15886;49.170;14.572;2024-02-23T09:41:58;0.57;;;0.40;;
28714;SDS011;15886;49.170;14.572;2024-02-23T09:44:26;1.73;;;0.73;;
28714;SDS011;15886;49.170;14.572;2024-02-23T09:47:02;1.10;;;0.70;;
28714;SDS011;15886;49.170;14.572;2024-02-23T09:49:39;1.58;;;0.98;;
28714;SDS011;15886;49.170;14.572;2024-02-23T09:52:07;1.13;;;0.50;;
28714;SDS011;15886;49.170;14.572;2024-02-23T09:54:39;1.40;;;0.70;;
28714;SDS011;15886;49.170;14.572;2024-02-23T09:57:07;0.95;;;0.60;;
28714;SDS011;15886;49.170;14.572;2024-02-23T09:59:36;4.75;;;1.25;;
28714;SDS011;15886;49.170;14.572;2024-02-23T10:02:06;1.08;;;0.73;;
28714;SDS011;15886;49.170;14.572;2024-02-23T10:04:36;1.80;;;1.15;;
28714;SDS011;15886;49.170;14.572;2024-02-23T10:07:06;0.77;;;0.68;;
28714;SDS011;15886;49.170;14.572;2024-02-23T10:09:34;1.48;;;1.02;;
28714;SDS011;15886;49.170;14.572;2024-02-23T10:12:03;2.88;;;1.60;;
28714;SDS011;15886;49.170;14.572;2024-02-23T10:14:31;1.85;;;0.90;;
28714;SDS011;15886;49.170;14.572;2024-02-23T10:16:59;1.73;;;0.80;;
28714;SDS011;15886;49.170;14.572;2024-02-23T10:19:29;1.08;;;0.55;;
28714;SDS011;15886;49.170;14.572;2024-02-23T10:21:57;1.17;;;0.52;;
28714;SDS011;15886;49.170;14.572;2024-02-23T10:24:25;1.95;;;0.90;;
28714;SDS011;15886;49.170;14.572;2024-02-23T10:26:53;4.03;;;0.77;;
28714;SDS011;15886;49.170;14.572;2024-02-23T10:29:22;0.75;;;0.65;;
28714;SDS011;15886;49.170;14.572;2024-02-23T10:31:51;2.80;;;0.80;;
28714;SDS011;15886;49.170;14.572;2024-02-23T10:34:20;4.40;;;1.73;;
28714;SDS011;15886;49.170;14.572;2024-02-23T10:36:48;1.15;;;0.47;;
28714;SDS011;15886;49.170;14.572;2024-02-23T10:39:18;3.90;;;0.55;;
28714;SDS011;15886;49.170;14.572;2024-02-23T10:41:47;0.50;;;0.40;;
28714;SDS011;15886;49.170;14.572;2024-02-23T10:44:20;1.67;;;0.70;;
28714;SDS011;15886;49.170;14.572;2024-02-23T10:46:49;1.27;;;0.63;;
28714;SDS011;15886;49.170;14.572;2024-02-23T10:49:18;1.90;;;0.60;;
28714;SDS011;15886;49.170;14.572;2024-02-23T10:51:48;1.00;;;0.50;;
28714;SDS011;15886;49.170;14.572;2024-02-23T10:54:17;1.63;;;0.47;;
28714;SDS011;15886;49.170;14.572;2024-02-23T10:56:47;0.57;;;0.40;;
28714;SDS011;15886;49.170;14.572;2024-02-23T10:59:15;0.57;;;0.40;;
28714;SDS011;15886;49.170;14.572;2024-02-23T11:01:49;1.08;;;0.70;;
28714;SDS011;15886;49.170;14.572;2024-02-23T11:04:17;2.90;;;0.60;;
28714;SDS011;15886;49.170;14.572;2024-02-23T11:06:53;0.60;;;0.32;;
28714;SDS011;15886;49.170;14.572;2024-02-23T11:09:23;3.55;;;0.60;;
28714;SDS011;15886;49.170;14.572;2024-02-23T11:11:55;1.20;;;0.60;;
28714;SDS011;15886;49.170;14.572;2024-02-23T11:14:34;2.33;;;0.73;;
28714;SDS011;15886;49.170;14.572;2024-02-23T11:17:03;6.75;;;2.40;;
28714;SDS011;15886;49.170;14.572;2024-02-23T11:19:40;6.57;;;0.93;;
28714;SDS011;15886;49.170;14.572;2024-02-23T11:22:11;0.70;;;0.60;;
28714;SDS011;15886;49.170;14.572;2024-02-23T11:24:42;2.00;;;1.35;;
28714;SDS011;15886;49.170;14.572;2024-02-23T11:27:14;3.67;;;0.75;;
28714;SDS011;15886;49.170;14.572;2024-02-23T11:29:45;2.42;;;0.55;;
28714;SDS011;15886;49.170;14.572;2024-02-23T11:32:16;4.10;;;1.02;;
28714;SDS011;15886;49.170;14.572;2024-02-23T11:34:54;0.50;;;0.50;;
28714;SDS011;15886;49.170;14.572;2024-02-23T11:37:24;1.23;;;0.60;;
28714;SDS011;15886;49.170;14.572;2024-02-23T11:39:57;1.50;;;0.73;;
28714;SDS011;15886;49.170;14.572;2024-02-23T11:42:25;2.05;;;0.60;;
28714;SDS011;15886;49.170;14.572;2024-02-23T11:44:54;1.45;;;0.68;;
28714;SDS011;15886;49.170;14.572;2024-02-23T11:47:22;1.63;;;0.55;;
28714;SDS011;15886;49.170;14.572;2024-02-23T11:49:50;1.40;;;0.60;;
28714;SDS011;15886;49.170;14.572;2024-02-23T11:52:18;1.90;;;0.77;;
28714;SDS011;15886;49.170;14.572;2024-02-23T11:54:47;0.47;;;0.43;;
28714;SDS011;15886;49.170;14.572;2024-02-23T11:57:15;4.35;;;0.70;;
28714;SDS011;15886;49.170;14.572;2024-02-23T11:59:43;2.60;;;0.80;;
28714;SDS011;15886;49.170;14.572;2024-02-23T12:02:12;1.80;;;0.73;;
28714;SDS011;15886;49.170;14.572;2024-02-23T12:04:40;4.72;;;0.95;;
28714;SDS011;15886;49.170;14.572;2024-02-23T12:07:08;1.75;;;1.13;;
28714;SDS011;15886;49.170;14.572;2024-02-23T12:09:37;5.65;;;3.00;;
28714;SDS011;15886;49.170;14.572;2024-02-23T12:12:08;4.85;;;2.38;;
28714;SDS011;15886;49.170;14.572;2024-02-23T12:14:36;4.60;;;1.15;;
28714;SDS011;15886;49.170;14.572;2024-02-23T12:17:04;2.83;;;1.33;;
28714;SDS011;15886;49.170;14.572;2024-02-23T12:19:40;4.13;;;1.55;;
28714;SDS011;15886;49.170;14.572;2024-02-23T12:22:09;2.55;;;1.00;;
28714;SDS011;15886;49.170;14.572;2024-02-23T12:24:40;5.22;;;1.17;;
28714;SDS011;15886;49.170;14.572;2024-02-23T12:27:08;4.57;;;1.13;;
28714;SDS011;15886;49.170;14.572;2024-02-23T12:29:37;2.42;;;1.08;;
28714;SDS011;15886;49.170;14.572;2024-02-23T12:32:05;6.13;;;1.40;;
28714;SDS011;15886;49.170;14.572;2024-02-23T12:34:33;6.88;;;2.10;;
28714;SDS011;15886;49.170;14.572;2024-02-23T12:37:02;19.95;;;8.18;;
28714;SDS011;15886;49.170;14.572;2024-02-23T12:39:32;9.50;;;3.90;;
28714;SDS011;15886;49.170;14.572;2024-02-23T12:42:00;8.45;;;2.67;;
28714;SDS011;15886;49.170;14.572;2024-02-23T12:44:34;11.77;;;5.28;;
28714;SDS011;15886;49.170;14.572;2024-02-23T12:47:02;18.55;;;8.23;;
28714;SDS011;15886;49.170;14.572;2024-02-23T12:49:30;10.80;;;4.72;;
28714;SDS011;15886;49.170;14.572;2024-02-23T12:51:59;3.17;;;1.25;;
28714;SDS011;15886;49.170;14.572;2024-02-23T12:54:27;2.42;;;1.13;;
28714;SDS011;15886;49.170;14.572;2024-02-23T12:56:55;3.20;;;1.25;;
28714;SDS011;15886;49.170;14.572;2024-02-23T12:59:24;6.30;;;2.20;;
28714;SDS011;15886;49.170;14.572;2024-02-23T13:01:52;3.95;;;1.42;;
28714;SDS011;15886;49.170;14.572;2024-02-23T13:04:20;6.85;;;2.70;;
28714;SDS011;15886;49.170;14.572;2024-02-23T13:06:48;3.58;;;1.23;;
28714;SDS011;15886;49.170;14.572;2024-02-23T13:09:17;2.47;;;1.27;;
28714;SDS011;15886;49.170;14.572;2024-02-23T13:11:45;4.35;;;2.17;;
28714;SDS011;15886;49.170;14.572;2024-02-23T13:14:14;4.15;;;2.40;;
28714;SDS011;15886;49.170;14.572;2024-02-23T13:16:43;1.45;;;0.75;;
28714;SDS011;15886;49.170;14.572;2024-02-23T13:19:11;2.35;;;1.10;;
28714;SDS011;15886;49.170;14.572;2024-02-23T13:21:39;4.70;;;1.25;;
28714;SDS011;15886;49.170;14.572;2024-02-23T13:24:07;7.35;;;3.08;;
28714;SDS011;15886;49.170;14.572;2024-02-23T13:26:36;6.82;;;3.38;;
28714;SDS011;15886;49.170;14.572;2024-02-23T13:29:04;5.40;;;2.75;;
28714;SDS011;15886;49.170;14.572;2024-02-23T13:31:32;3.70;;;1.75;;
28714;SDS011;15886;49.170;14.572;2024-02-23T13:34:00;14.85;;;8.07;;
28714;SDS011;15886;49.170;14.572;2024-02-23T13:36:28;9.77;;;2.58;;
28714;SDS011;15886;49.170;14.572;2024-02-23T13:38:56;11.82;;;4.45;;
28714;SDS011;15886;49.170;14.572;2024-02-23T13:41:25;5.57;;;3.60;;
28714;SDS011;15886;49.170;14.572;2024-02-23T13:43:54;6.85;;;2.75;;
28714;SDS011;15886;49.170;14.572;2024-02-23T13:46:22;26.27;;;11.23;;
28714;SDS011;15886;49.170;14.572;2024-02-23T13:49:01;39.90;;;22.55;;
28714;SDS011;15886;49.170;14.572;2024-02-23T13:51:30;18.75;;;7.00;;
28714;SDS011;15886;49.170;14.572;2024-02-23T13:53:58;4.72;;;2.30;;
28714;SDS011;15886;49.170;14.572;2024-02-23T13:56:26;7.25;;;3.50;;
28714;SDS011;15886;49.170;14.572;2024-02-23T13:58:54;5.65;;;3.20;;
28714;SDS011;15886;49.170;14.572;2024-02-23T14:01:23;2.58;;;1.58;;
28714;SDS011;15886;49.170;14.572;2024-02-23T14:03:51;5.40;;;2.30;;
28714;SDS011;15886;49.170;14.572;2024-02-23T14:06:20;1.55;;;0.73;;
28714;SDS011;15886;49.170;14.572;2024-02-23T14:08:48;0.60;;;0.47;;
28714;SDS011;15886;49.170;14.572;2024-02-23T14:11:16;2.22;;;0.45;;
28714;SDS011;15886;49.170;14.572;2024-02-23T14:13:45;1.08;;;0.40;;
28714;SDS011;15886;49.170;14.572;2024-02-23T14:16:15;2.47;;;0.77;;
28714;SDS011;15886;49.170;14.572;2024-02-23T14:18:43;0.57;;;0.40;;
28714;SDS011;15886;49.170;14.572;2024-02-23T14:21:12;0.40;;;0.40;;
28714;SDS011;15886;49.170;14.572;2024-02-23T14:23:41;1.98;;;0.50;;
28714;SDS011;15886;49.170;14.572;2024-02-23T14:26:09;1.98;;;0.47;;
28714;SDS011;15886;49.170;14.572;2024-02-23T14:28:39;1.50;;;0.30;;
28714;SDS011;15886;49.170;14.572;2024-02-23T14:31:08;1.73;;;0.68;;
28714;SDS011;15886;49.170;14.572;2024-02-23T14:33:36;5.75;;;3.35;;
28714;SDS011;15886;49.170;14.572;2024-02-23T14:36:04;5.57;;;4.43;;
28714;SDS011;15886;49.170;14.572;2024-02-23T14:38:32;3.08;;;1.10;;
28714;SDS011;15886;49.170;14.572;2024-02-23T14:41:01;3.63;;;1.20;;